Time;durP1;ratioP1;P1;durP2;ratioP2;P2;SDS_P1;SDS_P2;PMS_P1;PMS_P2;Temp;Humidity;BMP_temperature;BMP_pressure;BME280_temperature;BME280_humidity;BME280_pressure;Samples;Min_cycle;Max_cycle;Signal;HPM_P1;HPM_P2
2023/09/27 00:00:07;;;;;;;16.40;9.20;;;11.60;99.90;;;;;;5030071;28;20818;-69
2023/09/27 00:02:35;;;;;;;13.77;8.97;;;11.60;99.90;;;;;;5030263;28;20975;-68
2023/09/27 00:05:06;;;;;;;13.93;8.23;;;11.60;99.90;;;;;;5030453;28;20443;-70
2023/09/27 00:07:36;;;;;;;13.50;8.40;;;11.60;99.90;;;;;;5030744;28;20452;-69
2023/09/27 00:10:05;;;;;;;12.13;7.97;;;11.50;99.90;;;;;;5030170;28;20487;-71
2023/09/27 00:12:35;;;;;;;14.93;8.50;;;11.50;99.90;;;;;;5030943;28;20454;-69
2023/09/27 00:15:05;;;;;;;13.10;8.10;;;11.50;99.90;;;;;;5030466;28;20538;-69
2023/09/27 00:17:33;;;;;;;13.10;8.43;;;11.40;99.90;;;;;;5030361;28;20869;-70
2023/09/27 00:20:01;;;;;;;14.37;8.07;;;11.40;99.90;;;;;;5026785;28;20856;-70
2023/09/27 00:22:29;;;;;;;16.37;8.47;;;11.30;99.90;;;;;;5030116;28;20456;-69
2023/09/27 00:24:57;;;;;;;13.57;8.10;;;11.30;99.90;;;;;;5029477;28;20461;-69
2023/09/27 00:27:26;;;;;;;14.00;7.87;;;11.30;99.90;;;;;;5028567;28;20442;-70
2023/09/27 00:29:55;;;;;;;13.60;8.60;;;11.30;99.90;;;;;;5030085;28;20911;-71
2023/09/27 00:32:23;;;;;;;12.57;8.40;;;11.30;99.90;;;;;;5021985;28;20448;-70
2023/09/27 00:34:51;;;;;;;13.47;7.17;;;11.30;99.90;;;;;;5030016;28;20442;-69
2023/09/27 00:37:19;;;;;;;14.23;8.13;;;11.30;99.90;;;;;;5029224;28;20448;-71
2023/09/27 00:39:47;;;;;;;14.80;9.13;;;11.30;99.90;;;;;;5030184;28;20461;-68
2023/09/27 00:42:15;;;;;;;14.20;8.80;;;11.30;99.90;;;;;;5030002;28;20965;-70
2023/09/27 00:44:43;;;;;;;12.90;8.03;;;11.30;99.90;;;;;;5029635;28;20455;-71
2023/09/27 00:47:13;;;;;;;14.10;7.83;;;11.30;99.90;;;;;;5030022;28;20484;-70
2023/09/27 00:49:42;;;;;;;15.57;9.13;;;11.30;99.90;;;;;;5029466;28;20481;-70
2023/09/27 00:52:10;;;;;;;14.17;8.47;;;11.20;99.90;;;;;;5029652;28;20481;-69
2023/09/27 00:54:38;;;;;;;15.37;9.30;;;11.10;99.90;;;;;;5030047;28;20870;-69
2023/09/27 00:57:06;;;;;;;16.83;8.73;;;11.10;99.90;;;;;;5029489;28;20514;-69
2023/09/27 00:59:34;;;;;;;16.73;10.03;;;11.10;99.90;;;;;;5029352;28;20462;-70
2023/09/27 01:02:02;;;;;;;16.27;9.50;;;11.10;99.90;;;;;;5029552;28;20457;-70
2023/09/27 01:04:32;;;;;;;15.17;8.53;;;11.00;99.90;;;;;;5029709;28;20529;-70
2023/09/27 01:07:00;;;;;;;15.97;10.37;;;10.90;99.90;;;;;;5029349;28;20534;-69
2023/09/27 01:09:31;;;;;;;15.80;9.83;;;11.00;99.90;;;;;;5029242;28;20492;-69
2023/09/27 01:11:59;;;;;;;14.90;9.50;;;11.10;99.90;;;;;;5029251;28;21014;-70
2023/09/27 01:14:27;;;;;;;17.80;9.50;;;11.20;99.90;;;;;;5029288;28;20479;-70
2023/09/27 01:16:55;;;;;;;16.70;9.83;;;11.10;99.90;;;;;;5029232;28;20803;-70
2023/09/27 01:19:23;;;;;;;15.87;9.37;;;11.10;99.90;;;;;;5028743;28;20981;-70
2023/09/27 01:21:52;;;;;;;15.27;9.43;;;11.10;99.90;;;;;;5029359;28;20445;-72
2023/09/27 01:24:22;;;;;;;18.13;11.30;;;11.00;99.90;;;;;;5028889;28;20512;-70
2023/09/27 01:26:50;;;;;;;16.60;10.03;;;11.00;99.90;;;;;;5028781;28;20451;-68
2023/09/27 01:29:18;;;;;;;15.63;9.83;;;11.00;99.90;;;;;;5028535;28;20484;-66
2023/09/27 01:31:46;;;;;;;19.17;10.20;;;10.90;99.90;;;;;;5029322;28;20451;-69
2023/09/27 01:34:14;;;;;;;18.33;9.60;;;11.00;99.90;;;;;;5028979;28;21262;-70
2023/09/27 01:36:42;;;;;;;16.90;10.20;;;10.90;99.90;;;;;;5028146;28;20541;-67
2023/09/27 01:39:10;;;;;;;14.93;10.00;;;10.80;99.90;;;;;;5028615;28;20480;-68
2023/09/27 01:41:39;;;;;;;14.80;10.30;;;10.80;99.90;;;;;;5029001;28;20919;-67
2023/09/27 01:44:07;;;;;;;14.00;8.43;;;10.90;99.90;;;;;;5028937;28;20486;-68
2023/09/27 01:46:35;;;;;;;14.60;8.87;;;11.00;99.90;;;;;;5028815;28;20479;-69
2023/09/27 01:49:04;;;;;;;16.83;9.20;;;10.80;99.90;;;;;;5028493;28;20459;-67
2023/09/27 01:51:32;;;;;;;16.03;10.67;;;10.70;99.90;;;;;;5028351;28;20549;-68
2023/09/27 01:53:59;;;;;;;16.20;9.83;;;10.70;99.90;;;;;;5028111;28;20922;-68
2023/09/27 01:56:27;;;;;;;15.30;9.97;;;10.70;99.90;;;;;;5019028;28;20528;-67
2023/09/27 01:58:57;;;;;;;17.30;10.33;;;10.80;99.90;;;;;;5028514;28;20463;-67
2023/09/27 02:01:24;;;;;;;14.40;9.20;;;10.90;99.90;;;;;;5028335;28;20473;-66
2023/09/27 02:03:52;;;;;;;15.70;9.80;;;10.80;99.90;;;;;;5027945;28;21006;-68
2023/09/27 02:06:22;;;;;;;13.60;9.87;;;10.70;99.90;;;;;;5028559;28;20448;-67
2023/09/27 02:08:50;;;;;;;14.77;9.10;;;10.70;99.90;;;;;;5028272;28;21128;-68
2023/09/27 02:11:19;;;;;;;15.50;9.40;;;10.70;99.90;;;;;;5028249;28;20517;-68
2023/09/27 02:13:47;;;;;;;15.00;8.73;;;10.80;99.90;;;;;;5028546;28;20508;-67
2023/09/27 02:16:16;;;;;;;13.77;8.40;;;10.90;99.90;;;;;;5034348;28;20445;-68
2023/09/27 02:18:44;;;;;;;15.80;9.30;;;10.90;99.90;;;;;;5027792;28;20457;-68
2023/09/27 02:21:13;;;;;;;14.60;9.10;;;10.90;99.90;;;;;;5028013;28;21249;-67
2023/09/27 02:23:41;;;;;;;15.50;9.33;;;10.90;99.90;;;;;;5028400;28;20545;-67
2023/09/27 02:26:09;;;;;;;15.17;9.20;;;10.90;99.90;;;;;;5027940;28;20456;-67
2023/09/27 02:28:37;;;;;;;12.73;8.00;;;10.80;99.90;;;;;;5027951;28;20499;-67
2023/09/27 02:31:10;;;;;;;22.53;9.70;;;10.70;99.90;;;;;;5027952;28;20490;-68
2023/09/27 02:33:40;;;;;;;13.83;8.60;;;10.70;99.90;;;;;;5028136;28;20445;-67
2023/09/27 02:36:08;;;;;;;15.93;7.77;;;10.70;99.90;;;;;;5027993;28;20546;-67
2023/09/27 02:38:37;;;;;;;14.07;8.30;;;10.70;99.90;;;;;;5028337;28;20520;-68
2023/09/27 02:41:05;;;;;;;14.27;8.47;;;10.50;99.90;;;;;;5028398;28;20497;-68
2023/09/27 02:43:33;;;;;;;13.00;7.80;;;10.50;99.90;;;;;;5028267;28;20454;-68
2023/09/27 02:46:01;;;;;;;14.10;8.67;;;10.50;99.90;;;;;;5027881;28;20454;-68
2023/09/27 02:48:29;;;;;;;15.00;9.30;;;10.40;99.90;;;;;;5029227;28;20438;-67
2023/09/27 02:50:59;;;;;;;15.77;9.40;;;10.40;99.90;;;;;;5031886;28;21002;-68
2023/09/27 02:53:27;;;;;;;14.93;9.63;;;10.50;99.90;;;;;;5031996;28;20522;-68
2023/09/27 02:55:55;;;;;;;15.90;8.63;;;10.50;99.90;;;;;;5032000;28;20472;-67
2023/09/27 02:58:23;;;;;;;22.50;11.07;;;10.50;99.90;;;;;;5031284;28;20451;-67
2023/09/27 03:00:52;;;;;;;17.00;9.77;;;10.40;99.90;;;;;;5031059;28;21004;-68
2023/09/27 03:03:20;;;;;;;14.00;8.57;;;10.40;99.90;;;;;;5031150;28;20479;-68
2023/09/27 03:05:49;;;;;;;15.47;8.80;;;10.30;99.90;;;;;;5026254;28;21039;-68
2023/09/27 03:08:18;;;;;;;17.17;9.67;;;10.40;99.90;;;;;;5031003;28;20445;-68
2023/09/27 03:10:48;;;;;;;15.37;8.77;;;10.40;99.90;;;;;;5031240;28;20517;-68
2023/09/27 03:13:16;;;;;;;16.70;8.43;;;10.30;99.90;;;;;;5031032;28;20952;-68
2023/09/27 03:15:44;;;;;;;14.80;8.53;;;10.30;99.90;;;;;;5031349;28;20448;-67
2023/09/27 03:18:13;;;;;;;16.50;9.00;;;10.40;99.90;;;;;;5030467;28;20459;-67
2023/09/27 03:20:41;;;;;;;15.03;8.80;;;10.40;99.90;;;;;;5031496;28;20972;-67
2023/09/27 03:23:09;;;;;;;24.10;10.40;;;10.40;99.90;;;;;;5031232;28;20538;-68
2023/09/27 03:25:38;;;;;;;14.83;8.53;;;10.40;99.90;;;;;;5031394;28;20467;-68
2023/09/27 03:28:06;;;;;;;14.23;9.13;;;10.40;99.90;;;;;;5030965;28;20558;-67
2023/09/27 03:30:34;;;;;;;19.50;9.67;;;10.40;99.90;;;;;;5031035;28;20499;-67
2023/09/27 03:33:02;;;;;;;19.67;11.40;;;10.40;99.90;;;;;;5031407;28;20819;-67
2023/09/27 03:35:30;;;;;;;16.77;11.30;;;10.60;99.90;;;;;;5023380;28;20481;-68
2023/09/27 03:37:58;;;;;;;18.10;10.60;;;10.60;99.90;;;;;;5030942;28;20449;-67
2023/09/27 03:40:26;;;;;;;16.40;10.00;;;10.60;99.90;;;;;;5030705;28;20879;-68
2023/09/27 03:42:55;;;;;;;18.30;10.97;;;10.60;99.90;;;;;;5031039;28;20442;-68
2023/09/27 03:45:23;;;;;;;17.63;9.80;;;10.60;99.90;;;;;;5030979;28;20514;-67
2023/09/27 03:47:51;;;;;;;14.37;8.30;;;10.50;99.90;;;;;;5030266;28;20964;-67
2023/09/27 03:50:19;;;;;;;14.47;9.53;;;10.40;99.90;;;;;;5030533;28;20591;-67
2023/09/27 03:52:47;;;;;;;15.63;9.00;;;10.40;99.90;;;;;;5030770;28;20449;-67
2023/09/27 03:55:15;;;;;;;17.10;10.70;;;10.40;99.90;;;;;;5030745;28;20836;-68
2023/09/27 03:57:43;;;;;;;16.30;10.00;;;10.50;99.90;;;;;;5030326;28;20505;-67
2023/09/27 04:00:15;;;;;;;16.73;9.43;;;10.50;99.90;;;;;;5029131;28;20472;-67
2023/09/27 04:02:43;;;;;;;15.30;9.37;;;10.50;99.90;;;;;;5030916;28;20478;-67
2023/09/27 04:05:12;;;;;;;16.10;9.30;;;10.40;99.90;;;;;;5030355;28;20452;-67
2023/09/27 04:07:41;;;;;;;15.87;9.13;;;10.40;99.90;;;;;;5030280;28;20495;-68
2023/09/27 04:10:09;;;;;;;14.50;8.63;;;10.40;99.90;;;;;;5030245;28;20473;-67
2023/09/27 04:12:37;;;;;;;15.77;7.97;;;10.40;99.90;;;;;;5030592;28;20554;-68
2023/09/27 04:15:09;;;;;;;15.27;9.23;;;10.30;99.90;;;;;;5030261;28;20453;-67
2023/09/27 04:17:39;;;;;;;14.27;8.53;;;10.30;99.90;;;;;;5030083;28;20449;-67
2023/09/27 04:20:14;;;;;;;15.83;9.97;;;10.30;99.90;;;;;;5029663;28;21012;-68
2023/09/27 04:22:44;;;;;;;15.60;9.47;;;10.20;99.90;;;;;;5030708;28;20455;-68
2023/09/27 04:25:14;;;;;;;14.83;9.50;;;10.30;99.90;;;;;;5030552;28;20483;-67
2023/09/27 04:27:45;;;;;;;18.17;9.87;;;10.20;99.90;;;;;;5030151;28;20460;-67
2023/09/27 04:30:14;;;;;;;16.97;9.27;;;10.20;99.90;;;;;;5030220;28;20476;-68
2023/09/27 04:32:45;;;;;;;16.70;9.77;;;10.20;99.90;;;;;;5030338;28;20473;-67
2023/09/27 04:35:14;;;;;;;17.57;9.13;;;10.10;99.90;;;;;;5030360;28;20445;-69
2023/09/27 04:37:42;;;;;;;16.00;9.33;;;10.10;99.90;;;;;;5029978;28;20452;-68
2023/09/27 04:40:11;;;;;;;17.43;10.60;;;10.10;99.90;;;;;;5029854;28;20529;-67
2023/09/27 04:42:40;;;;;;;16.37;9.67;;;10.00;99.90;;;;;;5030074;28;20469;-68
2023/09/27 04:45:10;;;;;;;17.53;9.23;;;10.10;99.90;;;;;;5029446;28;20453;-67
2023/09/27 04:47:38;;;;;;;14.90;9.60;;;10.10;99.90;;;;;;5029624;28;20451;-67
2023/09/27 04:50:09;;;;;;;16.33;9.63;;;10.20;99.90;;;;;;5029382;28;20495;-66
2023/09/27 04:52:38;;;;;;;18.20;10.10;;;10.10;99.90;;;;;;5029636;28;20566;-66
2023/09/27 04:55:08;;;;;;;14.50;8.70;;;10.20;99.90;;;;;;5029618;28;20453;-67
2023/09/27 04:57:36;;;;;;;17.40;9.97;;;10.20;99.90;;;;;;5035288;28;20452;-68
2023/09/27 05:00:06;;;;;;;13.90;8.80;;;10.20;99.90;;;;;;5029176;28;20992;-67
2023/09/27 05:02:34;;;;;;;15.97;9.87;;;10.10;99.90;;;;;;5029512;28;20930;-67
2023/09/27 05:05:02;;;;;;;16.27;9.00;;;10.20;99.90;;;;;;5029190;28;20454;-67
2023/09/27 05:07:31;;;;;;;14.60;9.13;;;10.20;99.90;;;;;;5029083;28;20793;-68
2023/09/27 05:10:00;;;;;;;14.33;9.27;;;10.10;99.90;;;;;;5026770;28;20477;-70
2023/09/27 05:12:28;;;;;;;16.27;10.23;;;9.90;99.90;;;;;;5022806;28;20491;-69
2023/09/27 05:14:58;;;;;;;17.10;11.37;;;9.80;99.90;;;;;;5025776;28;20514;-69
2023/09/27 05:17:26;;;;;;;18.67;12.10;;;9.90;99.90;;;;;;5028528;28;20503;-70
2023/09/27 05:19:54;;;;;;;19.10;12.03;;;10.00;99.90;;;;;;5025647;28;20534;-70
2023/09/27 05:22:22;;;;;;;20.73;12.83;;;10.00;99.90;;;;;;5023671;28;20508;-70
2023/09/27 05:24:51;;;;;;;18.10;12.00;;;9.90;99.90;;;;;;5028895;28;20457;-68
2023/09/27 05:27:20;;;;;;;20.03;11.10;;;9.80;99.90;;;;;;5028490;28;20452;-69
2023/09/27 05:29:48;;;;;;;17.80;10.80;;;9.90;99.90;;;;;;5029013;28;20549;-69
2023/09/27 05:32:16;;;;;;;19.20;11.57;;;9.90;99.90;;;;;;5028847;28;20480;-69
2023/09/27 05:34:44;;;;;;;17.97;10.40;;;9.90;99.90;;;;;;5027914;28;20460;-70
2023/09/27 05:37:14;;;;;;;19.10;11.67;;;10.00;99.90;;;;;;5029211;28;20444;-69
2023/09/27 05:39:42;;;;;;;16.83;10.80;;;10.00;99.90;;;;;;5035891;28;20474;-70
2023/09/27 05:42:11;;;;;;;19.40;11.87;;;10.10;99.90;;;;;;5028904;28;20452;-70
2023/09/27 05:44:39;;;;;;;21.13;11.60;;;10.10;99.90;;;;;;5028725;28;20459;-71
2023/09/27 05:47:07;;;;;;;20.67;11.90;;;10.10;99.90;;;;;;5028364;28;20473;-71
2023/09/27 05:49:35;;;;;;;20.23;10.87;;;10.10;99.90;;;;;;5027782;28;20483;-71
2023/09/27 05:52:04;;;;;;;16.00;10.30;;;10.20;99.90;;;;;;5029059;28;20488;-72
2023/09/27 05:54:32;;;;;;;16.77;10.70;;;10.20;99.90;;;;;;5025630;28;21480;-72
2023/09/27 05:57:00;;;;;;;17.20;9.50;;;10.10;99.90;;;;;;5027766;28;20863;-72
2023/09/27 05:59:30;;;;;;;13.70;8.77;;;10.20;99.90;;;;;;5027283;28;20464;-72
2023/09/27 06:01:58;;;;;;;14.20;9.17;;;10.30;99.90;;;;;;5028254;28;20514;-70
2023/09/27 06:04:27;;;;;;;18.17;9.60;;;10.30;99.90;;;;;;5028879;28;20469;-70
2023/09/27 06:06:57;;;;;;;15.27;8.67;;;10.30;99.90;;;;;;5028490;28;20537;-70
2023/09/27 06:09:26;;;;;;;15.57;9.40;;;10.30;99.90;;;;;;5028104;28;20456;-70
2023/09/27 06:11:53;;;;;;;16.80;9.37;;;10.30;99.90;;;;;;5028528;28;20477;-71
2023/09/27 06:14:21;;;;;;;16.63;9.87;;;10.30;99.90;;;;;;5028573;28;20437;-71
2023/09/27 06:16:51;;;;;;;14.93;10.30;;;10.40;99.90;;;;;;5028345;28;20485;-71
2023/09/27 06:19:19;;;;;;;14.80;9.17;;;10.50;99.90;;;;;;5028280;28;20474;-69
2023/09/27 06:21:48;;;;;;;17.07;10.03;;;10.50;99.90;;;;;;5028714;28;20449;-72
2023/09/27 06:24:16;;;;;;;15.43;9.20;;;10.50;99.90;;;;;;5027651;28;20457;-71
2023/09/27 06:26:44;;;;;;;15.47;9.63;;;10.50;99.90;;;;;;5028255;28;20452;-72
2023/09/27 06:29:12;;;;;;;14.20;9.00;;;10.70;99.90;;;;;;5027920;28;20450;-72
2023/09/27 06:31:40;;;;;;;15.57;8.97;;;10.80;99.90;;;;;;5028132;28;20447;-70
2023/09/27 06:34:10;;;;;;;17.10;10.10;;;10.90;99.90;;;;;;5028200;28;20509;-68
2023/09/27 06:36:38;;;;;;;15.93;9.33;;;11.20;99.90;;;;;;5020599;28;20458;-66
2023/09/27 06:39:07;;;;;;;20.00;9.87;;;11.20;99.90;;;;;;5028006;28;20450;-68
2023/09/27 06:41:35;;;;;;;16.23;10.13;;;11.30;99.90;;;;;;5027985;28;20452;-69
2023/09/27 06:44:04;;;;;;;15.03;9.73;;;11.40;99.90;;;;;;5029953;28;20461;-69
2023/09/27 06:46:33;;;;;;;17.23;9.53;;;11.30;99.90;;;;;;5027818;28;20820;-72
2023/09/27 06:49:17;;;;;;;16.57;10.80;;;11.50;99.90;;;;;;5027885;28;20447;-70
2023/09/27 06:51:45;;;;;;;16.20;11.27;;;11.60;99.90;;;;;;5027290;28;21040;-70
2023/09/27 06:54:13;;;;;;;17.23;9.83;;;11.70;99.90;;;;;;5026786;28;20529;-69
2023/09/27 06:56:42;;;;;;;17.23;11.50;;;11.70;99.90;;;;;;5020518;28;20486;-70
2023/09/27 06:59:10;;;;;;;20.30;10.90;;;11.80;99.90;;;;;;5027215;28;20472;-70
2023/09/27 07:01:41;;;;;;;15.47;9.43;;;11.90;99.90;;;;;;5027958;28;20448;-71
2023/09/27 07:04:09;;;;;;;19.93;10.80;;;12.00;99.90;;;;;;5026850;28;20452;-70
2023/09/27 07:06:38;;;;;;;15.83;10.43;;;12.10;99.90;;;;;;5019786;28;20527;-70
2023/09/27 07:09:13;;;;;;;20.50;11.47;;;12.10;99.90;;;;;;5027759;28;20458;-70
2023/09/27 07:11:43;;;;;;;16.97;10.30;;;12.30;99.90;;;;;;5028143;28;20490;-70
2023/09/27 07:14:12;;;;;;;15.30;9.63;;;12.40;99.90;;;;;;5027765;28;20868;-68
2023/09/27 07:16:41;;;;;;;17.87;10.13;;;12.40;99.90;;;;;;5027449;28;20452;-70
2023/09/27 07:19:26;;;;;;;14.60;9.27;;;12.50;99.90;;;;;;5027803;28;20451;-71
2023/09/27 07:21:55;;;;;;;14.80;9.87;;;12.70;99.90;;;;;;5028549;28;20437;-71
2023/09/27 07:24:24;;;;;;;15.07;9.77;;;12.80;99.90;;;;;;5027634;28;20502;-70
2023/09/27 07:26:52;;;;;;;16.10;9.50;;;12.90;99.90;;;;;;5027703;28;20446;-71
2023/09/27 07:29:21;;;;;;;14.70;9.87;;;13.00;99.90;;;;;;5027650;28;20445;-71
2023/09/27 07:31:49;;;;;;;15.40;9.00;;;13.00;99.90;;;;;;5028007;28;20449;-71
2023/09/27 07:34:18;;;;;;;14.50;8.40;;;13.20;99.90;;;;;;5027921;28;20996;-71
2023/09/27 07:36:45;;;;;;;13.40;8.90;;;13.40;99.90;;;;;;5031030;28;20453;-70
2023/09/27 07:39:16;;;;;;;14.77;8.77;;;13.50;99.90;;;;;;5031554;28;20830;-70
2023/09/27 07:41:44;;;;;;;12.73;7.97;;;13.60;99.90;;;;;;5032163;28;20967;-71
2023/09/27 07:44:12;;;;;;;13.40;7.37;;;13.80;99.90;;;;;;5031976;28;20489;-71
2023/09/27 07:46:40;;;;;;;14.10;8.27;;;13.80;99.90;;;;;;5031489;28;20459;-71
2023/09/27 07:49:09;;;;;;;14.50;7.50;;;13.90;99.90;;;;;;5031637;28;20455;-71
2023/09/27 07:51:37;;;;;;;12.50;7.10;;;14.10;99.90;;;;;;5023372;28;20984;-69
2023/09/27 07:54:08;;;;;;;14.70;7.90;;;14.20;99.90;;;;;;5031190;28;20508;-70
2023/09/27 07:56:39;;;;;;;14.93;9.23;;;14.40;99.90;;;;;;5031172;28;20443;-68
2023/09/27 07:59:08;;;;;;;13.70;9.60;;;14.50;99.90;;;;;;5030904;28;20487;-70
2023/09/27 08:01:37;;;;;;;15.63;10.00;;;14.60;99.90;;;;;;5030934;28;20534;-69
2023/09/27 08:04:07;;;;;;;17.20;8.40;;;14.70;99.90;;;;;;5031251;28;20207;-70
2023/09/27 08:06:39;;;;;;;13.50;7.80;;;14.80;99.90;;;;;;5030885;28;20445;-69
2023/09/27 08:09:07;;;;;;;13.77;8.80;;;15.10;99.90;;;;;;5030654;28;20449;-69
2023/09/27 08:11:45;;;;;;;12.60;8.80;;;15.20;99.90;;;;;;5024063;28;20486;-70
2023/09/27 08:14:16;;;;;;;14.53;8.47;;;15.30;99.90;;;;;;5030642;28;20551;-70
2023/09/27 08:16:44;;;;;;;14.60;9.37;;;15.30;99.90;;;;;;5030796;28;20918;-69
2023/09/27 08:19:14;;;;;;;15.20;8.03;;;15.50;99.90;;;;;;5030393;28;20932;-69
2023/09/27 08:21:42;;;;;;;14.03;8.50;;;15.60;99.90;;;;;;5030831;28;20964;-68
2023/09/27 08:24:10;;;;;;;10.93;7.10;;;15.70;99.90;;;;;;5030404;28;20514;-69
2023/09/27 08:26:37;;;;;;;12.20;7.40;;;15.90;99.90;;;;;;5022442;28;20451;-69
2023/09/27 08:29:07;;;;;;;10.60;6.87;;;16.00;99.90;;;;;;5030320;28;20449;-70
2023/09/27 08:31:37;;;;;;;11.07;6.43;;;16.20;99.90;;;;;;5030381;28;20512;-71
2023/09/27 08:34:05;;;;;;;12.23;5.83;;;16.30;99.90;;;;;;5030477;28;20575;-71
2023/09/27 08:36:33;;;;;;;11.70;5.80;;;16.60;99.90;;;;;;5030184;28;20665;-70
2023/09/27 08:39:02;;;;;;;10.13;4.63;;;16.70;99.90;;;;;;5030234;28;20453;-71
2023/09/27 08:41:31;;;;;;;9.30;4.40;;;17.00;99.90;;;;;;5030087;28;20571;-70
2023/09/27 08:43:59;;;;;;;9.67;3.77;;;17.40;99.90;;;;;;5030319;28;20811;-70
2023/09/27 08:46:31;;;;;;;9.27;3.40;;;17.60;99.90;;;;;;5029287;28;20445;-70
2023/09/27 08:49:00;;;;;;;9.07;3.87;;;17.80;99.90;;;;;;5029867;28;20449;-71
2023/09/27 08:51:29;;;;;;;9.30;3.40;;;17.90;99.90;;;;;;5030010;28;20548;-70
2023/09/27 08:53:58;;;;;;;8.37;3.50;;;18.10;99.90;;;;;;5030017;28;20491;-71
2023/09/27 08:56:28;;;;;;;8.00;3.30;;;18.20;99.90;;;;;;5029413;28;20453;-71
2023/09/27 08:58:57;;;;;;;9.27;3.43;;;18.50;99.90;;;;;;5030101;28;20455;-72
2023/09/27 09:01:26;;;;;;;8.60;3.33;;;18.90;99.90;;;;;;5029751;28;20538;-71
2023/09/27 09:03:56;;;;;;;7.50;2.90;;;19.20;99.90;;;;;;5030089;28;20452;-72
2023/09/27 09:06:25;;;;;;;8.30;3.20;;;19.60;99.90;;;;;;5029621;28;20461;-73
2023/09/27 09:08:53;;;;;;;8.07;3.30;;;19.80;99.90;;;;;;5029723;28;20445;-71
2023/09/27 09:11:23;;;;;;;8.90;3.57;;;19.90;99.90;;;;;;5033608;28;20830;-71
2023/09/27 09:13:59;;;;;;;8.50;3.40;;;20.10;99.90;;;;;;5038071;28;20477;-72
2023/09/27 09:16:29;;;;;;;9.53;3.80;;;20.30;99.90;;;;;;5038007;28;20455;-71
2023/09/27 09:18:59;;;;;;;8.87;3.37;;;20.60;99.90;;;;;;5030061;28;21184;-71
2023/09/27 09:21:28;;;;;;;9.47;4.00;;;20.80;99.90;;;;;;5029759;28;20461;-71
2023/09/27 09:23:56;;;;;;;9.10;4.50;;;21.10;99.90;;;;;;5030110;28;20445;-71
2023/09/27 09:26:29;;;;;;;10.10;4.40;;;21.30;99.90;;;;;;5029315;28;20451;-73
2023/09/27 09:29:00;;;;;;;9.27;4.17;;;21.50;99.90;;;;;;5029504;28;20852;-71
2023/09/27 09:31:30;;;;;;;10.80;3.83;;;21.60;99.90;;;;;;5029421;28;20813;-71
2023/09/27 09:34:07;;;;;;;9.83;4.10;;;21.70;99.90;;;;;;5029252;28;20565;-72
2023/09/27 09:36:36;;;;;;;8.73;4.40;;;21.90;99.90;;;;;;5028826;28;20936;-70
2023/09/27 09:39:06;;;;;;;9.40;4.40;;;22.30;99.90;;;;;;5029237;28;20444;-70
2023/09/27 09:41:47;;;;;;;11.57;4.23;;;22.60;99.90;;;;;;5029015;28;20523;-70
2023/09/27 09:44:19;;;;;;;9.77;4.50;;;22.70;99.90;;;;;;5029212;28;20440;-70
2023/09/27 09:46:48;;;;;;;10.83;4.50;;;22.80;99.90;;;;;;5028891;28;20441;-70
2023/09/27 09:49:17;;;;;;;10.60;4.50;;;23.00;99.90;;;;;;5028477;28;20473;-71
2023/09/27 09:51:48;;;;;;;10.30;4.67;;;23.10;99.90;;;;;;5029082;28;20449;-71
2023/09/27 09:54:24;;;;;;;10.87;4.40;;;23.40;99.90;;;;;;5028965;28;20498;-72
2023/09/27 09:56:52;;;;;;;11.40;4.63;;;23.20;99.90;;;;;;5028831;28;20872;-70
2023/09/27 09:59:42;;;;;;;10.73;5.73;;;23.00;99.90;;;;;;5028020;28;20465;-71
2023/09/27 10:02:19;;;;;;;10.20;4.23;;;23.30;99.90;;;;;;5029021;28;20449;-70
2023/09/27 10:04:55;;;;;;;11.07;4.70;;;23.80;99.90;;;;;;5021595;28;20487;-70
2023/09/27 10:07:25;;;;;;;8.80;4.90;;;24.30;99.90;;;;;;5028333;28;20444;-71
2023/09/27 10:09:53;;;;;;;10.83;3.87;;;24.70;99.90;;;;;;5028643;28;20495;-71
2023/09/27 10:12:23;;;;;;;10.60;4.10;;;24.90;99.90;;;;;;5028495;28;21033;-70
2023/09/27 10:14:52;;;;;;;8.80;4.03;;;25.10;99.90;;;;;;5028876;28;20906;-70
2023/09/27 10:17:21;;;;;;;9.53;3.80;;;25.00;99.90;;;;;;5028211;28;20480;-71
2023/09/27 10:20:12;;;;;;;9.00;4.03;;;25.30;99.90;;;;;;5028434;28;20457;-71
2023/09/27 10:22:41;;;;;;;8.53;3.73;;;25.70;99.90;;;;;;5028047;28;20449;-71
2023/09/27 10:25:32;;;;;;;8.30;3.60;;;26.30;98.50;;;;;;5028716;28;20818;-70
2023/09/27 10:28:08;;;;;;;9.50;3.50;;;26.80;95.60;;;;;;5023939;28;20445;-70
2023/09/27 10:31:05;;;;;;;8.80;3.73;;;27.30;93.60;;;;;;5028110;28;20478;-71
2023/09/27 10:33:34;;;;;;;9.10;3.40;;;27.50;93.00;;;;;;5028448;28;20454;-70
2023/09/27 10:36:29;;;;;;;11.77;4.20;;;27.80;91.60;;;;;;5028359;28;20487;-70
2023/09/27 10:39:05;;;;;;;9.20;3.13;;;28.10;87.90;;;;;;5022486;28;20460;-70
2023/09/27 10:41:50;;;;;;;8.80;4.57;;;28.10;87.40;;;;;;5028318;28;20469;-70
2023/09/27 10:44:29;;;;;;;7.93;3.47;;;28.20;86.60;;;;;;5028235;28;20441;-71
2023/09/27 10:46:58;;;;;;;8.27;3.23;;;28.40;79.40;;;;;;5028114;28;20437;-70
2023/09/27 10:49:27;;;;;;;9.87;3.30;;;28.10;79.50;;;;;;5027907;28;20451;-70
2023/09/27 10:51:56;;;;;;;8.20;3.30;;;28.00;80.20;;;;;;5028418;28;20440;-70
2023/09/27 10:54:35;;;;;;;8.00;3.07;;;28.50;75.30;;;;;;5028284;28;20589;-70
2023/09/27 10:57:03;;;;;;;8.13;3.03;;;29.00;71.70;;;;;;5028146;28;20445;-70
2023/09/27 10:59:31;;;;;;;8.17;2.73;;;29.10;71.00;;;;;;5027841;28;20558;-70
2023/09/27 11:02:00;;;;;;;9.10;3.30;;;29.40;71.00;;;;;;5028111;28;20524;-70
2023/09/27 11:04:29;;;;;;;8.60;3.03;;;30.00;66.50;;;;;;5028185;28;20440;-71
2023/09/27 11:06:58;;;;;;;7.83;2.80;;;30.10;60.80;;;;;;5028190;28;20854;-70
2023/09/27 11:09:27;;;;;;;8.10;3.00;;;29.70;61.30;;;;;;5029188;28;20445;-70
2023/09/27 11:11:57;;;;;;;6.80;2.23;;;29.90;66.00;;;;;;5032118;28;20487;-71
2023/09/27 11:14:31;;;;;;;8.10;2.70;;;30.40;62.60;;;;;;5031713;28;20449;-71
2023/09/27 11:17:15;;;;;;;8.00;2.70;;;30.80;57.80;;;;;;5031698;28;20458;-70
2023/09/27 11:19:43;;;;;;;7.63;2.60;;;30.60;56.00;;;;;;5023564;28;20464;-71
2023/09/27 11:22:12;;;;;;;7.57;2.60;;;30.40;54.60;;;;;;5031786;28;20453;-71
2023/09/27 11:24:41;;;;;;;8.57;2.70;;;30.80;54.80;;;;;;5031409;28;20932;-70
2023/09/27 11:27:09;;;;;;;10.30;2.90;;;31.10;52.90;;;;;;5031420;28;21012;-71
2023/09/27 11:29:37;;;;;;;7.80;2.60;;;31.10;52.80;;;;;;5031360;28;20464;-69
2023/09/27 11:32:06;;;;;;;8.03;2.53;;;31.50;52.70;;;;;;5031766;28;20459;-70
2023/09/27 11:34:33;;;;;;;8.60;2.67;;;31.80;50.40;;;;;;5031545;28;20449;-71
2023/09/27 11:37:03;;;;;;;7.27;1.90;;;32.00;50.30;;;;;;5031783;28;20515;-71
2023/09/27 11:39:49;;;;;;;8.30;2.10;;;32.10;46.70;;;;;;5031227;28;20834;-71
2023/09/27 11:42:21;;;;;;;7.63;2.20;;;32.10;47.50;;;;;;5031755;28;20448;-70
2023/09/27 11:45:03;;;;;;;7.30;2.03;;;32.60;46.80;;;;;;5024209;28;20432;-71
2023/09/27 11:47:32;;;;;;;7.53;1.90;;;32.10;45.40;;;;;;5031017;28;20447;-68
2023/09/27 11:50:00;;;;;;;6.50;1.60;;;32.20;45.80;;;;;;5029114;28;20916;-70
2023/09/27 11:52:28;;;;;;;6.70;1.60;;;33.00;44.20;;;;;;5030412;28;20516;-69
2023/09/27 11:54:57;;;;;;;7.80;1.90;;;32.60;44.20;;;;;;5031045;28;20717;-71
2023/09/27 11:57:25;;;;;;;7.10;2.00;;;33.10;43.20;;;;;;5030893;28;20453;-71
2023/09/27 11:59:53;;;;;;;7.00;1.70;;;33.60;42.60;;;;;;5031088;28;20527;-70
2023/09/27 12:02:21;;;;;;;7.60;2.00;;;34.10;42.30;;;;;;5030775;28;20449;-70
2023/09/27 12:04:57;;;;;;;7.70;2.20;;;34.70;43.20;;;;;;5031284;28;20858;-72
2023/09/27 12:07:25;;;;;;;8.57;2.63;;;35.30;41.00;;;;;;5030553;28;20453;-70
2023/09/27 12:09:54;;;;;;;7.40;2.00;;;34.90;43.70;;;;;;5030546;28;20472;-70
2023/09/27 12:12:24;;;;;;;9.93;2.23;;;34.10;42.50;;;;;;5031094;28;20529;-70
2023/09/27 12:14:52;;;;;;;7.10;2.47;;;33.30;43.40;;;;;;5030827;28;20468;-71
2023/09/27 12:17:21;;;;;;;7.20;1.93;;;33.30;46.20;;;;;;5029739;28;20546;-70
2023/09/27 12:19:49;;;;;;;8.63;2.43;;;34.00;44.10;;;;;;5030373;28;20655;-70
2023/09/27 12:22:18;;;;;;;7.10;1.97;;;35.00;43.60;;;;;;5029635;28;20954;-70
2023/09/27 12:24:46;;;;;;;7.17;2.00;;;36.00;41.60;;;;;;5030772;28;20964;-71
2023/09/27 12:27:14;;;;;;;7.60;2.40;;;36.80;40.00;;;;;;5029911;28;20477;-71
2023/09/27 12:29:43;;;;;;;7.10;2.30;;;35.70;38.30;;;;;;5029880;28;20595;-70
2023/09/27 12:32:11;;;;;;;7.30;2.43;;;35.70;40.30;;;;;;5030544;28;20503;-70
2023/09/27 12:34:40;;;;;;;7.10;2.03;;;35.50;39.80;;;;;;5030143;28;20479;-70
2023/09/27 12:37:08;;;;;;;7.40;1.97;;;35.50;40.40;;;;;;5029577;28;20488;-71
2023/09/27 12:39:37;;;;;;;6.67;1.97;;;35.80;39.70;;;;;;5029157;28;20485;-70
2023/09/27 12:42:05;;;;;;;7.27;2.57;;;36.40;40.40;;;;;;5027840;28;20584;-71
2023/09/27 12:44:33;;;;;;;7.70;1.77;;;35.80;38.10;;;;;;5031156;28;21036;-70
2023/09/27 12:47:03;;;;;;;7.10;2.40;;;35.10;39.30;;;;;;5029745;28;20441;-70
2023/09/27 12:49:31;;;;;;;7.30;2.63;;;35.00;39.60;;;;;;5029201;28;20452;-71